CDT,Max TemperatureF,Mean TemperatureF,Min TemperatureF,Max Dew PointF,MeanDew PointF,Min DewpointF,Max Humidity, Mean Humidity, Min Humidity, Max Sea Level PressureIn, Mean Sea Level PressureIn, Min Sea Level PressureIn, Max VisibilityMiles, Mean VisibilityMiles, Min VisibilityMiles, Max Wind SpeedMPH, Mean Wind SpeedMPH, Max Gust SpeedMPH,PrecipitationIn, CloudCover, Events, WindDirDegrees
2012-7-1,105,90,75,71,66,62,74,50,26,29.96,29.92,29.87,10,8,6,16,6,21,0.00,0,,229
2012-7-2,101,88,75,70,67,62,79,54,29,30.01,29.96,29.91,10,9,6,17,7,23,0.00,0,,211
2012-7-3,97,87,76,74,69,65,85,63,40,29.99,29.94,29.88,10,10,10,22,5,30,0.01,2,Rain-Thunderstorm,210
2012-7-4,101,88,74,75,71,65,85,59,33,29.98,29.94,29.89,10,9,2,28,3,53,0.25,2,Rain-Thunderstorm,180
2012-7-5,105,89,73,72,68,60,93,59,24,29.98,29.93,29.88,10,10,9,10,3,14,T,0,,261
2012-7-6,107,92,76,71,66,55,76,48,19,29.96,29.93,29.88,10,10,10,18,6,23,0.00,0,,243
2012-7-7,104,89,73,72,69,65,87,59,31,29.98,29.93,29.87,10,10,9,17,4,23,0.01,1,,237
2012-7-8,99,86,73,73,71,67,87,63,39,30.00,29.94,29.85,10,9,2,31,8,43,0.67,3,Rain-Thunderstorm,230
2012-7-9,92,82,72,73,71,69,100,76,52,30.01,29.96,29.89,10,7,2,13,5,22,T,2,Rain-Thunderstorm,39
2012-7-10,92,82,72,72,70,63,93,66,38,30.00,29.95,29.92,10,8,3,16,5,21,0.03,3,,90
2012-7-11,95,82,69,72,67,62,93,66,39,30.02,29.98,29.93,10,8,2,17,5,23,0.00,1,Thunderstorm,106
2012-7-12,90,79,67,70,67,65,93,69,44,30.01,29.99,29.95,10,9,5,15,5,21,0.00,1,,119
2012-7-13,85,77,69,73,69,66,97,78,58,30.06,30.02,29.99,10,10,10,12,4,16,T,5,Rain,116
2012-7-14,89,80,70,73,71,66,100,75,50,30.10,30.05,30.01,10,9,2,18,4,25,0.08,4,Rain,170
2012-7-15,91,81,70,72,70,68,100,75,49,30.14,30.07,30.01,10,9,4,15,4,20,T,3,,184
2012-7-16,95,83,71,73,70,67,93,69,44,30.06,30.00,29.91,10,10,8,17,5,24,0.00,1,,214
2012-7-17,97,85,73,74,72,69,87,65,43,29.97,29.92,29.87,10,10,10,17,7,24,0.00,1,Thunderstorm,231
2012-7-18,101,88,75,74,71,67,87,61,35,29.96,29.92,29.85,10,10,10,16,7,20,0.00,1,,223
2012-7-19,101,88,75,76,72,69,82,62,42,29.97,29.91,29.82,10,10,10,16,7,24,0.00,1,,229
2012-7-20,97,85,73,73,69,65,87,63,39,29.99,29.91,29.86,10,10,10,17,7,22,0.00,1,,22
2012-7-21,95,83,70,68,64,58,84,59,33,30.05,30.01,29.97,10,10,8,14,6,23,0.00,1,,54
2012-7-22,99,83,66,73,67,63,81,56,31,30.11,30.05,30.01,10,10,10,17,4,21,0.00,1,,143
2012-7-23,98,87,75,74,71,68,87,64,40,30.13,30.07,30.01,10,10,10,17,8,22,0.00,0,,232
2012-7-24,101,89,76,71,69,66,87,60,33,30.03,29.97,29.89,10,10,10,18,9,24,0.00,0,,229
2012-7-25,101,89,77,72,69,65,79,55,31,29.92,29.87,29.80,10,10,10,22,10,28,0.00,0,,230
2012-7-26,101,86,71,72,70,65,93,65,37,29.88,29.82,29.73,10,9,1,21,10,28,0.51,3,Rain-Thunderstorm,239
2012-7-27,96,84,71,74,71,67,100,72,43,29.97,29.91,29.87,10,7,0,18,7,25,0.00,3,Fog,254
2012-7-28,94,81,67,68,62,54,90,58,26,30.06,30.02,29.97,10,10,10,16,5,21,0.00,0,,9
2012-7-29,85,76,66,72,67,63,93,71,48,30.09,30.03,29.96,10,9,4,8,2,12,0.21,1,Rain,183
2012-7-30,96,83,70,74,70,67,90,68,46,29.95,29.89,29.83,10,10,9,13,5,25,0.01,2,Rain,174
2012-7-31,98,86,73,73,70,67,93,66,38,29.93,29.88,29.84,10,9,5,13,5,16,0.00,0,,284